sensor_id;sensor_type;location;lat;lon;timestamp;pressure;altitude;pressure_sealevel;temperature;humidity
72262;BME280;60173;52.112;8.648;2023-08-24T00:01:20;100897.31;;;16.37;96.92
72262;BME280;60173;52.112;8.648;2023-08-24T00:03:47;100889.09;;;16.37;97.09
72262;BME280;60173;52.112;8.648;2023-08-24T00:06:13;100882.63;;;16.50;98.72
72262;BME280;60173;52.112;8.648;2023-08-24T00:08:40;100877.13;;;16.50;97.19
72262;BME280;60173;52.112;8.648;2023-08-24T00:11:06;100870.88;;;16.41;96.50
72262;BME280;60173;52.112;8.648;2023-08-24T00:13:33;100869.78;;;16.24;97.14
72262;BME280;60173;52.112;8.648;2023-08-24T00:15:59;100873.81;;;16.18;97.63
72262;BME280;60173;52.112;8.648;2023-08-24T00:18:26;100863.16;;;16.25;97.74
72262;BME280;60173;52.112;8.648;2023-08-24T00:20:52;100864.13;;;16.30;97.63
72262;BME280;60173;52.112;8.648;2023-08-24T00:23:19;100867.66;;;16.30;97.49
72262;BME280;60173;52.112;8.648;2023-08-24T00:25:45;100863.34;;;16.20;97.74
72262;BME280;60173;52.112;8.648;2023-08-24T00:28:11;100859.97;;;16.15;98.51
72262;BME280;60173;52.112;8.648;2023-08-24T00:30:38;100863.69;;;16.10;98.67
72262;BME280;60173;52.112;8.648;2023-08-24T00:33:04;100860.97;;;16.01;98.83
72262;BME280;60173;52.112;8.648;2023-08-24T00:35:31;100860.97;;;15.75;99.92
72262;BME280;60173;52.112;8.648;2023-08-24T00:37:57;100858.41;;;15.70;100.00
72262;BME280;60173;52.112;8.648;2023-08-24T00:40:23;100855.66;;;15.70;100.00
72262;BME280;60173;52.112;8.648;2023-08-24T00:42:50;100853.25;;;15.69;100.00
72262;BME280;60173;52.112;8.648;2023-08-24T00:45:17;100853.41;;;15.72;100.00
72262;BME280;60173;52.112;8.648;2023-08-24T00:47:46;100857.28;;;15.71;100.00
72262;BME280;60173;52.112;8.648;2023-08-24T00:50:13;100861.44;;;15.60;100.00
72262;BME280;60173;52.112;8.648;2023-08-24T00:52:41;100856.63;;;15.66;100.00
72262;BME280;60173;52.112;8.648;2023-08-24T00:55:09;100856.63;;;15.57;100.00
72262;BME280;60173;52.112;8.648;2023-08-24T00:57:37;100850.97;;;15.53;100.00
72262;BME280;60173;52.112;8.648;2023-08-24T01:00:05;100854.84;;;15.61;100.00
72262;BME280;60173;52.112;8.648;2023-08-24T01:02:32;100855.63;;;15.53;100.00
72262;BME280;60173;52.112;8.648;2023-08-24T01:04:58;100859.50;;;15.52;100.00
72262;BME280;60173;52.112;8.648;2023-08-24T01:07:25;100849.19;;;15.49;100.00
72262;BME280;60173;52.112;8.648;2023-08-24T01:09:53;100853.06;;;15.48;100.00
72262;BME280;60173;52.112;8.648;2023-08-24T01:12:36;100853.88;;;15.40;100.00
72262;BME280;60173;52.112;8.648;2023-08-24T01:15:17;100856.91;;;15.47;100.00
72262;BME280;60173;52.112;8.648;2023-08-24T01:17:46;100854.97;;;15.38;100.00
72262;BME280;60173;52.112;8.648;2023-08-24T01:20:15;100859.00;;;15.24;100.00
72262;BME280;60173;52.112;8.648;2023-08-24T01:22:55;100860.09;;;15.14;100.00
72262;BME280;60173;52.112;8.648;2023-08-24T01:25:53;100861.72;;;15.15;100.00
72262;BME280;60173;52.112;8.648;2023-08-24T01:28:20;100866.88;;;15.17;100.00
72262;BME280;60173;52.112;8.648;2023-08-24T01:30:48;100859.50;;;15.34;100.00
72262;BME280;60173;52.112;8.648;2023-08-24T01:33:14;100864.31;;;15.29;100.00
72262;BME280;60173;52.112;8.648;2023-08-24T01:35:41;100863.66;;;15.23;100.00
72262;BME280;60173;52.112;8.648;2023-08-24T01:38:07;100868.50;;;15.26;100.00
72262;BME280;60173;52.112;8.648;2023-08-24T01:40:45;100861.72;;;15.24;100.00
72262;BME280;60173;52.112;8.648;2023-08-24T01:43:15;100856.41;;;15.27;100.00
72262;BME280;60173;52.112;8.648;2023-08-24T01:45:51;100855.31;;;15.28;100.00
72262;BME280;60173;52.112;8.648;2023-08-24T01:48:19;100851.13;;;15.40;100.00
72262;BME280;60173;52.112;8.648;2023-08-24T01:50:47;100842.75;;;15.45;100.00
72262;BME280;60173;52.112;8.648;2023-08-24T01:53:13;100851.13;;;15.40;100.00
72262;BME280;60173;52.112;8.648;2023-08-24T01:55:40;100842.75;;;15.36;100.00
72262;BME280;60173;52.112;8.648;2023-08-24T01:58:06;100838.25;;;15.31;100.00
72262;BME280;60173;52.112;8.648;2023-08-24T02:00:32;100836.94;;;15.20;100.00
72262;BME280;60173;52.112;8.648;2023-08-24T02:02:59;100824.41;;;15.36;100.00
72262;BME280;60173;52.112;8.648;2023-08-24T02:05:25;100820.53;;;15.37;100.00
72262;BME280;60173;52.112;8.648;2023-08-24T02:07:52;100817.00;;;15.54;100.00
72262;BME280;60173;52.112;8.648;2023-08-24T02:10:18;100800.44;;;15.68;100.00
72262;BME280;60173;52.112;8.648;2023-08-24T02:12:45;100797.34;;;15.52;100.00
72262;BME280;60173;52.112;8.648;2023-08-24T02:15:11;100803.31;;;15.72;100.00
72262;BME280;60173;52.112;8.648;2023-08-24T02:17:37;100801.38;;;15.72;100.00
72262;BME280;60173;52.112;8.648;2023-08-24T02:20:05;100793.81;;;15.69;100.00
72262;BME280;60173;52.112;8.648;2023-08-24T02:22:32;100806.38;;;15.70;99.36
72262;BME280;60173;52.112;8.648;2023-08-24T02:24:58;100808.31;;;15.44;99.40
72262;BME280;60173;52.112;8.648;2023-08-24T02:27:25;100807.34;;;15.22;100.00
72262;BME280;60173;52.112;8.648;2023-08-24T02:29:51;100808.28;;;15.18;100.00
72262;BME280;60173;52.112;8.648;2023-08-24T02:32:17;100810.50;;;15.07;100.00
72262;BME280;60173;52.112;8.648;2023-08-24T02:34:44;100804.88;;;14.95;100.00
72262;BME280;60173;52.112;8.648;2023-08-24T02:37:10;100801.28;;;14.77;100.00
72262;BME280;60173;52.112;8.648;2023-08-24T02:39:37;100798.00;;;14.57;100.00
72262;BME280;60173;52.112;8.648;2023-08-24T02:42:03;100794.84;;;14.64;100.00
72262;BME280;60173;52.112;8.648;2023-08-24T02:44:30;100801.53;;;14.58;100.00
72262;BME280;60173;52.112;8.648;2023-08-24T02:46:56;100808.28;;;14.52;100.00
72262;BME280;60173;52.112;8.648;2023-08-24T02:49:23;100802.50;;;14.53;100.00
72262;BME280;60173;52.112;8.648;2023-08-24T02:51:49;100802.22;;;14.72;100.00
72262;BME280;60173;52.112;8.648;2023-08-24T02:54:15;100790.19;;;14.73;100.00
72262;BME280;60173;52.112;8.648;2023-08-24T02:56:42;100782.00;;;14.73;100.00
72262;BME280;60173;52.112;8.648;2023-08-24T02:59:08;100790.19;;;14.73;100.00
72262;BME280;60173;52.112;8.648;2023-08-24T03:01:35;100796.09;;;14.66;100.00
72262;BME280;60173;52.112;8.648;2023-08-24T03:04:01;100791.63;;;14.71;100.00
72262;BME280;60173;52.112;8.648;2023-08-24T03:06:27;100793.88;;;14.68;100.00
72262;BME280;60173;52.112;8.648;2023-08-24T03:08:54;100792.28;;;14.67;100.00
72262;BME280;60173;52.112;8.648;2023-08-24T03:11:20;100789.56;;;14.76;100.00
72262;BME280;60173;52.112;8.648;2023-08-24T03:13:47;100782.16;;;14.77;100.00
72262;BME280;60173;52.112;8.648;2023-08-24T03:16:13;100787.16;;;14.83;100.00
72262;BME280;60173;52.112;8.648;2023-08-24T03:18:39;100795.34;;;14.83;100.00
72262;BME280;60173;52.112;8.648;2023-08-24T03:21:06;100788.91;;;14.79;100.00
72262;BME280;60173;52.112;8.648;2023-08-24T03:23:32;100792.97;;;14.90;100.00
72262;BME280;60173;52.112;8.648;2023-08-24T03:25:59;100796.66;;;14.95;100.00
72262;BME280;60173;52.112;8.648;2023-08-24T03:28:25;100795.53;;;14.87;100.00
72262;BME280;60173;52.112;8.648;2023-08-24T03:30:52;100806.00;;;14.94;100.00
72262;BME280;60173;52.112;8.648;2023-08-24T03:33:19;100794.44;;;14.97;100.00
72262;BME280;60173;52.112;8.648;2023-08-24T03:35:45;100797.34;;;15.09;100.00
72262;BME280;60173;52.112;8.648;2023-08-24T03:38:12;100791.56;;;15.19;100.00
72262;BME280;60173;52.112;8.648;2023-08-24T03:40:38;100789.63;;;15.20;100.00
72262;BME280;60173;52.112;8.648;2023-08-24T03:43:05;100780.13;;;15.34;100.00
72262;BME280;60173;52.112;8.648;2023-08-24T03:45:31;100787.38;;;15.48;99.60
72262;BME280;60173;52.112;8.648;2023-08-24T03:47:58;100792.84;;;15.48;99.25
72262;BME280;60173;52.112;8.648;2023-08-24T03:50:24;100795.75;;;15.43;99.38
72262;BME280;60173;52.112;8.648;2023-08-24T03:52:51;100801.88;;;15.57;99.48
72262;BME280;60173;52.112;8.648;2023-08-24T03:55:18;100793.16;;;15.55;99.04
72262;BME280;60173;52.112;8.648;2023-08-24T03:57:44;100807.34;;;15.48;98.99
72262;BME280;60173;52.112;8.648;2023-08-24T04:00:11;100817.63;;;15.25;99.76
72262;BME280;60173;52.112;8.648;2023-08-24T04:02:38;100822.31;;;15.16;100.00
72262;BME280;60173;52.112;8.648;2023-08-24T04:05:05;100806.34;;;15.27;100.00
72262;BME280;60173;52.112;8.648;2023-08-24T04:07:31;100809.44;;;15.34;100.00
72262;BME280;60173;52.112;8.648;2023-08-24T04:09:57;100821.50;;;15.42;99.45
72262;BME280;60173;52.112;8.648;2023-08-24T04:12:24;100821.34;;;15.38;99.02
72262;BME280;60173;52.112;8.648;2023-08-24T04:14:50;100813.75;;;15.26;99.89
72262;BME280;60173;52.112;8.648;2023-08-24T04:17:17;100809.75;;;15.41;99.83
72262;BME280;60173;52.112;8.648;2023-08-24T04:19:43;100813.63;;;15.49;99.41
72262;BME280;60173;52.112;8.648;2023-08-24T04:22:09;100801.38;;;15.55;99.28
72262;BME280;60173;52.112;8.648;2023-08-24T04:24:36;100798.31;;;15.65;99.09
72262;BME280;60173;52.112;8.648;2023-08-24T04:27:02;100793.97;;;15.73;98.98
72262;BME280;60173;52.112;8.648;2023-08-24T04:29:29;100791.38;;;15.85;98.50
72262;BME280;60173;52.112;8.648;2023-08-24T04:31:55;100789.59;;;15.98;98.66
72262;BME280;60173;52.112;8.648;2023-08-24T04:34:21;100791.53;;;15.89;98.24
72262;BME280;60173;52.112;8.648;2023-08-24T04:36:48;100800.41;;;15.94;97.59
72262;BME280;60173;52.112;8.648;2023-08-24T04:39:14;100793.94;;;15.90;97.62
72262;BME280;60173;52.112;8.648;2023-08-24T04:41:40;100802.66;;;15.84;98.42
72262;BME280;60173;52.112;8.648;2023-08-24T04:44:07;100808.44;;;15.91;98.37
72262;BME280;60173;52.112;8.648;2023-08-24T04:46:33;100808.75;;;15.98;98.38
72262;BME280;60173;52.112;8.648;2023-08-24T04:49:00;100819.38;;;15.99;98.04
72262;BME280;60173;52.112;8.648;2023-08-24T04:51:26;100828.56;;;16.03;98.00
72262;BME280;60173;52.112;8.648;2023-08-24T04:53:53;100835.34;;;16.06;97.98
72262;BME280;60173;52.112;8.648;2023-08-24T04:56:20;100853.84;;;16.18;97.35
72262;BME280;60173;52.112;8.648;2023-08-24T04:58:56;100840.78;;;16.15;97.29
72262;BME280;60173;52.112;8.648;2023-08-24T05:01:23;100838.53;;;16.08;97.63
72262;BME280;60173;52.112;8.648;2023-08-24T05:03:51;100841.25;;;16.17;97.74
72262;BME280;60173;52.112;8.648;2023-08-24T05:06:18;100835.75;;;16.25;97.56
72262;BME280;60173;52.112;8.648;2023-08-24T05:08:45;100836.25;;;16.27;97.58
72262;BME280;60173;52.112;8.648;2023-08-24T05:11:20;100843.50;;;16.32;96.88
72262;BME280;60173;52.112;8.648;2023-08-24T05:13:46;100838.16;;;16.36;97.04
72262;BME280;60173;52.112;8.648;2023-08-24T05:16:13;100842.97;;;16.39;97.28
72262;BME280;60173;52.112;8.648;2023-08-24T05:18:40;100839.41;;;16.47;97.30
72262;BME280;60173;52.112;8.648;2023-08-24T05:21:06;100835.16;;;16.58;98.66
72262;BME280;60173;52.112;8.648;2023-08-24T05:23:33;100830.25;;;16.72;98.85
72262;BME280;60173;52.112;8.648;2023-08-24T05:26:01;100817.34;;;16.73;98.73
72262;BME280;60173;52.112;8.648;2023-08-24T05:28:30;100808.63;;;16.80;97.32
72262;BME280;60173;52.112;8.648;2023-08-24T05:30:56;100796.25;;;16.65;96.88
72262;BME280;60173;52.112;8.648;2023-08-24T05:33:24;100792.22;;;16.62;96.71
72262;BME280;60173;52.112;8.648;2023-08-24T05:35:51;100773.31;;;16.78;96.98
72262;BME280;60173;52.112;8.648;2023-08-24T05:38:18;100772.13;;;16.88;96.07
72262;BME280;60173;52.112;8.648;2023-08-24T05:40:48;100749.06;;;16.80;96.07
72262;BME280;60173;52.112;8.648;2023-08-24T05:43:15;100739.16;;;16.67;96.17
72262;BME280;60173;52.112;8.648;2023-08-24T05:45:41;100736.44;;;16.88;96.43
72262;BME280;60173;52.112;8.648;2023-08-24T05:48:08;100737.31;;;16.80;96.33
72262;BME280;60173;52.112;8.648;2023-08-24T05:50:34;100740.41;;;16.99;95.78
72262;BME280;60173;52.112;8.648;2023-08-24T05:53:01;100743.22;;;17.11;96.00
72262;BME280;60173;52.112;8.648;2023-08-24T05:55:27;100739.91;;;17.18;95.82
72262;BME280;60173;52.112;8.648;2023-08-24T05:57:53;100737.69;;;17.32;94.85
72262;BME280;60173;52.112;8.648;2023-08-24T06:00:20;100744.00;;;17.33;93.54
72262;BME280;60173;52.112;8.648;2023-08-24T06:02:46;100748.16;;;17.39;92.81
72262;BME280;60173;52.112;8.648;2023-08-24T06:05:12;100747.00;;;17.40;92.52
72262;BME280;60173;52.112;8.648;2023-08-24T06:07:39;100758.66;;;17.37;92.80
72262;BME280;60173;52.112;8.648;2023-08-24T06:10:06;100768.84;;;17.36;93.75
72262;BME280;60173;52.112;8.648;2023-08-24T06:12:32;100768.34;;;17.55;93.30
72262;BME280;60173;52.112;8.648;2023-08-24T06:14:59;100770.91;;;17.73;92.63
72262;BME280;60173;52.112;8.648;2023-08-24T06:17:25;100773.16;;;17.79;91.24
72262;BME280;60173;52.112;8.648;2023-08-24T06:19:51;100771.72;;;17.94;91.56
72262;BME280;60173;52.112;8.648;2023-08-24T06:22:18;100780.19;;;18.01;91.22
72262;BME280;60173;52.112;8.648;2023-08-24T06:24:44;100785.84;;;18.29;91.17
72262;BME280;60173;52.112;8.648;2023-08-24T06:27:10;100781.88;;;18.76;88.84
72262;BME280;60173;52.112;8.648;2023-08-24T06:29:37;100770.56;;;19.06;84.44
72262;BME280;60173;52.112;8.648;2023-08-24T06:32:03;100758.19;;;19.00;84.61
72262;BME280;60173;52.112;8.648;2023-08-24T06:34:30;100757.06;;;18.88;85.34
72262;BME280;60173;52.112;8.648;2023-08-24T06:37:00;100752.06;;;18.78;85.20
72262;BME280;60173;52.112;8.648;2023-08-24T06:39:27;100747.88;;;18.96;84.83
72262;BME280;60173;52.112;8.648;2023-08-24T06:41:53;100748.72;;;18.48;85.83
72262;BME280;60173;52.112;8.648;2023-08-24T06:44:20;100746.63;;;18.94;84.95
72262;BME280;60173;52.112;8.648;2023-08-24T06:46:46;100740.50;;;19.13;85.61
72262;BME280;60173;52.112;8.648;2023-08-24T06:49:13;100734.91;;;19.37;84.99
72262;BME280;60173;52.112;8.648;2023-08-24T06:51:39;100734.03;;;19.33;84.16
72262;BME280;60173;52.112;8.648;2023-08-24T06:54:05;100742.84;;;19.55;83.13
72262;BME280;60173;52.112;8.648;2023-08-24T06:56:32;100725.78;;;19.49;82.02
72262;BME280;60173;52.112;8.648;2023-08-24T06:58:58;100726.94;;;19.76;81.57
72262;BME280;60173;52.112;8.648;2023-08-24T07:01:24;100732.19;;;19.81;80.82
72262;BME280;60173;52.112;8.648;2023-08-24T07:03:51;100727.66;;;19.61;81.00
72262;BME280;60173;52.112;8.648;2023-08-24T07:06:18;100721.97;;;19.82;80.58
72262;BME280;60173;52.112;8.648;2023-08-24T07:08:44;100725.59;;;19.42;81.13
72262;BME280;60173;52.112;8.648;2023-08-24T07:11:11;100717.09;;;19.19;83.01
72262;BME280;60173;52.112;8.648;2023-08-24T07:13:37;100719.47;;;18.92;83.77
72262;BME280;60173;52.112;8.648;2023-08-24T07:16:03;100710.47;;;19.08;84.34
72262;BME280;60173;52.112;8.648;2023-08-24T07:18:30;100702.88;;;19.17;83.71
72262;BME280;60173;52.112;8.648;2023-08-24T07:20:56;100693.09;;;19.48;83.12
72262;BME280;60173;52.112;8.648;2023-08-24T07:23:23;100680.84;;;19.17;82.13
72262;BME280;60173;52.112;8.648;2023-08-24T07:25:49;100681.34;;;19.07;83.75
72262;BME280;60173;52.112;8.648;2023-08-24T07:28:16;100675.41;;;19.49;82.83
72262;BME280;60173;52.112;8.648;2023-08-24T07:30:42;100669.78;;;19.73;81.94
72262;BME280;60173;52.112;8.648;2023-08-24T07:33:08;100669.03;;;19.45;82.48
72262;BME280;60173;52.112;8.648;2023-08-24T07:35:35;100677.00;;;19.50;82.79
72262;BME280;60173;52.112;8.648;2023-08-24T07:38:01;100665.50;;;19.92;81.94
72262;BME280;60173;52.112;8.648;2023-08-24T07:40:28;100670.00;;;20.31;79.92
72262;BME280;60173;52.112;8.648;2023-08-24T07:42:54;100673.28;;;20.53;80.06
72262;BME280;60173;52.112;8.648;2023-08-24T07:45:21;100667.03;;;20.56;80.71
72262;BME280;60173;52.112;8.648;2023-08-24T07:47:48;100665.47;;;20.74;78.36
72262;BME280;60173;52.112;8.648;2023-08-24T07:50:15;100672.16;;;20.93;77.95
72262;BME280;60173;52.112;8.648;2023-08-24T07:52:42;100668.63;;;21.35;77.64
72262;BME280;60173;52.112;8.648;2023-08-24T07:55:08;100676.66;;;21.40;75.92
72262;BME280;60173;52.112;8.648;2023-08-24T07:57:35;100671.38;;;21.54;75.74
72262;BME280;60173;52.112;8.648;2023-08-24T08:00:03;100671.38;;;21.54;75.21
72262;BME280;60173;52.112;8.648;2023-08-24T08:02:34;100672.81;;;21.44;74.62
72262;BME280;60173;52.112;8.648;2023-08-24T08:05:00;100671.28;;;21.47;74.38
72262;BME280;60173;52.112;8.648;2023-08-24T08:07:26;100672.31;;;21.62;74.55
72262;BME280;60173;52.112;8.648;2023-08-24T08:09:53;100675.88;;;21.85;73.98
72262;BME280;60173;52.112;8.648;2023-08-24T08:12:19;100666.72;;;22.04;73.37
72262;BME280;60173;52.112;8.648;2023-08-24T08:14:46;100669.34;;;22.20;73.13
72262;BME280;60173;52.112;8.648;2023-08-24T08:17:12;100671.31;;;22.46;73.01
72262;BME280;60173;52.112;8.648;2023-08-24T08:19:38;100666.69;;;22.54;72.53
72262;BME280;60173;52.112;8.648;2023-08-24T08:22:05;100665.94;;;22.57;71.74
72262;BME280;60173;52.112;8.648;2023-08-24T08:24:35;100672.31;;;22.61;71.62
72262;BME280;60173;52.112;8.648;2023-08-24T08:27:02;100666.97;;;22.75;70.83
72262;BME280;60173;52.112;8.648;2023-08-24T08:29:28;100667.50;;;22.88;71.42
72262;BME280;60173;52.112;8.648;2023-08-24T08:31:55;100661.66;;;22.93;70.43
72262;BME280;60173;52.112;8.648;2023-08-24T08:34:22;100662.91;;;22.96;69.04
72262;BME280;60173;52.112;8.648;2023-08-24T08:36:48;100660.31;;;23.10;71.21
72262;BME280;60173;52.112;8.648;2023-08-24T08:39:14;100655.63;;;23.14;70.13
72262;BME280;60173;52.112;8.648;2023-08-24T08:41:42;100651.84;;;23.33;68.06
72262;BME280;60173;52.112;8.648;2023-08-24T08:44:12;100661.50;;;23.46;70.40
72262;BME280;60173;52.112;8.648;2023-08-24T08:46:40;100654.59;;;23.71;69.14
72262;BME280;60173;52.112;8.648;2023-08-24T08:49:08;100663.25;;;23.28;66.58
72262;BME280;60173;52.112;8.648;2023-08-24T08:51:36;100665.09;;;23.13;68.43
72262;BME280;60173;52.112;8.648;2023-08-24T08:54:06;100668.75;;;23.62;68.89
72262;BME280;60173;52.112;8.648;2023-08-24T08:56:32;100651.22;;;23.95;67.25
72262;BME280;60173;52.112;8.648;2023-08-24T08:58:59;100649.53;;;24.35;68.45
72262;BME280;60173;52.112;8.648;2023-08-24T09:01:27;100640.31;;;24.93;65.13
72262;BME280;60173;52.112;8.648;2023-08-24T09:03:54;100629.19;;;24.93;62.44
72262;BME280;60173;52.112;8.648;2023-08-24T09:06:21;100619.66;;;24.84;63.65
72262;BME280;60173;52.112;8.648;2023-08-24T09:08:49;100617.84;;;24.36;64.25
72262;BME280;60173;52.112;8.648;2023-08-24T09:11:16;100610.13;;;24.85;65.72
72262;BME280;60173;52.112;8.648;2023-08-24T09:13:43;100612.56;;;24.97;64.50
72262;BME280;60173;52.112;8.648;2023-08-24T09:16:10;100611.31;;;24.80;65.94
72262;BME280;60173;52.112;8.648;2023-08-24T09:18:37;100611.75;;;24.93;65.33
72262;BME280;60173;52.112;8.648;2023-08-24T09:21:11;100597.44;;;24.91;65.52
72262;BME280;60173;52.112;8.648;2023-08-24T09:23:57;100596.63;;;24.79;64.23
72262;BME280;60173;52.112;8.648;2023-08-24T09:26:42;100595.09;;;25.00;65.29
72262;BME280;60173;52.112;8.648;2023-08-24T09:29:15;100593.16;;;25.11;61.31
72262;BME280;60173;52.112;8.648;2023-08-24T09:31:42;100573.34;;;25.38;61.90
72262;BME280;60173;52.112;8.648;2023-08-24T09:34:09;100575.31;;;25.19;62.76
72262;BME280;60173;52.112;8.648;2023-08-24T09:36:37;100572.94;;;25.36;61.53
72262;BME280;60173;52.112;8.648;2023-08-24T09:39:04;100565.00;;;25.23;62.56
72262;BME280;60173;52.112;8.648;2023-08-24T09:41:41;100561.44;;;25.23;63.63
72262;BME280;60173;52.112;8.648;2023-08-24T09:44:08;100562.63;;;25.61;63.16
72262;BME280;60173;52.112;8.648;2023-08-24T09:46:35;100559.44;;;25.23;57.32
72262;BME280;60173;52.112;8.648;2023-08-24T09:49:04;100563.00;;;25.31;57.96
72262;BME280;60173;52.112;8.648;2023-08-24T09:51:31;100567.38;;;25.64;57.96
72262;BME280;60173;52.112;8.648;2023-08-24T09:53:58;100560.63;;;25.51;59.77
72262;BME280;60173;52.112;8.648;2023-08-24T09:56:25;100560.22;;;25.70;58.47
72262;BME280;60173;52.112;8.648;2023-08-24T09:58:54;100561.00;;;26.03;57.33
72262;BME280;60173;52.112;8.648;2023-08-24T10:01:21;100568.94;;;26.08;56.42
72262;BME280;60173;52.112;8.648;2023-08-24T10:03:51;100552.31;;;25.44;54.00
72262;BME280;60173;52.112;8.648;2023-08-24T10:06:19;100550.28;;;25.66;55.34
72262;BME280;60173;52.112;8.648;2023-08-24T10:08:52;100543.44;;;26.21;55.21
72262;BME280;60173;52.112;8.648;2023-08-24T10:11:25;100543.31;;;26.60;49.49
72262;BME280;60173;52.112;8.648;2023-08-24T10:14:05;100537.16;;;26.90;52.41
72262;BME280;60173;52.112;8.648;2023-08-24T10:16:35;100537.63;;;26.81;54.50
72262;BME280;60173;52.112;8.648;2023-08-24T10:19:02;100528.38;;;26.95;53.60
72262;BME280;60173;52.112;8.648;2023-08-24T10:21:29;100519.81;;;27.27;49.94
72262;BME280;60173;52.112;8.648;2023-08-24T10:23:56;100515.97;;;27.56;50.34
72262;BME280;60173;52.112;8.648;2023-08-24T10:26:24;100503.59;;;27.57;52.50
72262;BME280;60173;52.112;8.648;2023-08-24T10:28:51;100503.56;;;27.64;52.07
72262;BME280;60173;52.112;8.648;2023-08-24T10:31:19;100502.47;;;27.50;50.71
72262;BME280;60173;52.112;8.648;2023-08-24T10:33:46;100498.75;;;27.64;48.48
72262;BME280;60173;52.112;8.648;2023-08-24T10:36:13;100495.13;;;27.26;49.31
72262;BME280;60173;52.112;8.648;2023-08-24T10:38:41;100503.59;;;27.60;49.82
72262;BME280;60173;52.112;8.648;2023-08-24T10:41:07;100502.59;;;27.81;49.46
72262;BME280;60173;52.112;8.648;2023-08-24T10:43:38;100515.38;;;27.37;52.20
72262;BME280;60173;52.112;8.648;2023-08-24T10:46:12;100506.97;;;27.82;50.80
72262;BME280;60173;52.112;8.648;2023-08-24T10:53:40;100505.56;;;27.60;47.52
72262;BME280;60173;52.112;8.648;2023-08-24T10:56:11;100505.63;;;27.56;49.11
72262;BME280;60173;52.112;8.648;2023-08-24T10:58:37;100505.91;;;27.69;52.21
72262;BME280;60173;52.112;8.648;2023-08-24T11:01:04;100501.63;;;27.99;50.48
72262;BME280;60173;52.112;8.648;2023-08-24T11:03:34;100512.41;;;27.55;49.33
72262;BME280;60173;52.112;8.648;2023-08-24T11:06:00;100507.03;;;27.75;51.33
72262;BME280;60173;52.112;8.648;2023-08-24T11:08:46;100491.16;;;28.06;49.47
72262;BME280;60173;52.112;8.648;2023-08-24T11:11:22;100479.63;;;27.66;49.89
72262;BME280;60173;52.112;8.648;2023-08-24T11:14:17;100469.41;;;27.90;49.13
72262;BME280;60173;52.112;8.648;2023-08-24T11:16:46;100460.97;;;27.98;51.22
72262;BME280;60173;52.112;8.648;2023-08-24T11:19:12;100454.06;;;28.06;50.16
72262;BME280;60173;52.112;8.648;2023-08-24T11:21:40;100450.31;;;27.47;49.96
72262;BME280;60173;52.112;8.648;2023-08-24T11:24:07;100447.41;;;27.96;49.88
72262;BME280;60173;52.112;8.648;2023-08-24T11:26:34;100449.41;;;28.26;50.44
72262;BME280;60173;52.112;8.648;2023-08-24T11:29:10;100442.34;;;28.18;51.76
72262;BME280;60173;52.112;8.648;2023-08-24T11:31:37;100430.88;;;28.39;49.96
72262;BME280;60173;52.112;8.648;2023-08-24T11:34:08;100425.81;;;27.66;48.46
72262;BME280;60173;52.112;8.648;2023-08-24T11:36:45;100409.09;;;27.66;48.77
72262;BME280;60173;52.112;8.648;2023-08-24T11:39:20;100400.25;;;28.05;49.93
72262;BME280;60173;52.112;8.648;2023-08-24T11:42:00;100388.09;;;27.54;49.61
72262;BME280;60173;52.112;8.648;2023-08-24T11:44:44;100375.69;;;27.93;51.46
72262;BME280;60173;52.112;8.648;2023-08-24T11:47:10;100377.25;;;28.52;51.29
72262;BME280;60173;52.112;8.648;2023-08-24T11:49:37;100376.81;;;28.26;48.14
72262;BME280;60173;52.112;8.648;2023-08-24T11:52:03;100372.78;;;28.00;48.72
72262;BME280;60173;52.112;8.648;2023-08-24T11:54:32;100370.63;;;28.11;53.20
72262;BME280;60173;52.112;8.648;2023-08-24T11:56:59;100356.22;;;28.44;50.80
72262;BME280;60173;52.112;8.648;2023-08-24T11:59:26;100358.81;;;28.81;49.76
72262;BME280;60173;52.112;8.648;2023-08-24T12:01:53;100363.78;;;28.94;48.84
72262;BME280;60173;52.112;8.648;2023-08-24T12:04:19;100358.84;;;29.05;49.14
72262;BME280;60173;52.112;8.648;2023-08-24T12:06:46;100360.25;;;28.90;49.29
72262;BME280;60173;52.112;8.648;2023-08-24T12:09:12;100352.47;;;29.24;47.69
72262;BME280;60173;52.112;8.648;2023-08-24T12:11:38;100344.59;;;29.19;50.89
72262;BME280;60173;52.112;8.648;2023-08-24T12:14:06;100343.28;;;29.24;49.03
72262;BME280;60173;52.112;8.648;2023-08-24T12:16:33;100355.22;;;29.28;47.90
72262;BME280;60173;52.112;8.648;2023-08-24T12:19:00;100345.53;;;29.33;48.72
72262;BME280;60173;52.112;8.648;2023-08-24T12:21:26;100345.72;;;29.22;47.62
72262;BME280;60173;52.112;8.648;2023-08-24T12:23:58;100340.78;;;29.29;46.57
72262;BME280;60173;52.112;8.648;2023-08-24T12:26:28;100343.47;;;29.13;48.88
72262;BME280;60173;52.112;8.648;2023-08-24T12:28:59;100347.66;;;29.01;48.62
72262;BME280;60173;52.112;8.648;2023-08-24T12:31:26;100332.47;;;29.26;46.13
72262;BME280;60173;52.112;8.648;2023-08-24T12:34:06;100331.97;;;29.11;47.42
72262;BME280;60173;52.112;8.648;2023-08-24T12:36:33;100345.06;;;29.14;49.79
72262;BME280;60173;52.112;8.648;2023-08-24T12:39:00;100343.84;;;28.92;51.31
72262;BME280;60173;52.112;8.648;2023-08-24T12:41:26;100348.00;;;28.83;50.53
72262;BME280;60173;52.112;8.648;2023-08-24T12:43:53;100342.53;;;28.53;51.61
72262;BME280;60173;52.112;8.648;2023-08-24T12:46:19;100336.44;;;28.58;52.04
72262;BME280;60173;52.112;8.648;2023-08-24T12:48:46;100331.00;;;28.74;49.58
72262;BME280;60173;52.112;8.648;2023-08-24T12:51:12;100335.84;;;28.47;52.98
72262;BME280;60173;52.112;8.648;2023-08-24T12:53:39;100348.16;;;28.49;54.03
72262;BME280;60173;52.112;8.648;2023-08-24T12:56:05;100338.66;;;28.70;50.41